sensor_id;sensor_type;location;lat;lon;timestamp;P1;P2;P0
76025;PMS5003;64721;51.084;17.242;2022-11-20T00:01:34;98;79;
76025;PMS5003;64721;51.084;17.242;2022-11-20T00:03:46;92;84;
76025;PMS5003;64721;51.084;17.242;2022-11-20T00:05:58;102;78;
76025;PMS5003;64721;51.084;17.242;2022-11-20T00:07:43;102;78;
76025;PMS5003;64721;51.084;17.242;2022-11-20T00:09:41;72;65;
76025;PMS5003;64721;51.084;17.242;2022-11-20T00:11:36;76;64;
76025;PMS5003;64721;51.084;17.242;2022-11-20T00:13:21;88;75;
76025;PMS5003;64721;51.084;17.242;2022-11-20T00:15:19;78;63;
76025;PMS5003;64721;51.084;17.242;2022-11-20T00:17:10;80;65;
76025;PMS5003;64721;51.084;17.242;2022-11-20T00:19:09;77;64;
76025;PMS5003;64721;51.084;17.242;2022-11-20T00:20:59;73;62;
76025;PMS5003;64721;51.084;17.242;2022-11-20T00:22:57;64;51;
76025;PMS5003;64721;51.084;17.242;2022-11-20T00:24:55;68;62;
76025;PMS5003;64721;51.084;17.242;2022-11-20T00:26:53;51;48;
76025;PMS5003;64721;51.084;17.242;2022-11-20T00:28:54;67;62;
76025;PMS5003;64721;51.084;17.242;2022-11-20T00:30:50;67;61;
76025;PMS5003;64721;51.084;17.242;2022-11-20T00:36:09;56;47;
76025;PMS5003;64721;51.084;17.242;2022-11-20T00:37:54;53;45;
76025;PMS5003;64721;51.084;17.242;2022-11-20T00:39:52;56;47;
76025;PMS5003;64721;51.084;17.242;2022-11-20T00:41:39;53;46;
76025;PMS5003;64721;51.084;17.242;2022-11-20T00:43:37;67;50;
76025;PMS5003;64721;51.084;17.242;2022-11-20T00:45:21;67;50;
76025;PMS5003;64721;51.084;17.242;2022-11-20T00:49:25;58;50;
76025;PMS5003;64721;51.084;17.242;2022-11-20T00:51:35;65;61;
76025;PMS5003;64721;51.084;17.242;2022-11-20T00:53:34;94;81;
76025;PMS5003;64721;51.084;17.242;2022-11-20T00:55:19;95;83;
76025;PMS5003;64721;51.084;17.242;2022-11-20T00:57:18;75;63;
76025;PMS5003;64721;51.084;17.242;2022-11-20T00:59:08;72;60;
76025;PMS5003;64721;51.084;17.242;2022-11-20T01:01:20;87;76;
76025;PMS5003;64721;51.084;17.242;2022-11-20T01:03:18;91;78;
76025;PMS5003;64721;51.084;17.242;2022-11-20T01:05:03;92;77;
76025;PMS5003;64721;51.084;17.242;2022-11-20T01:06:49;77;70;
76025;PMS5003;64721;51.084;17.242;2022-11-20T01:10:52;83;79;
76025;PMS5003;64721;51.084;17.242;2022-11-20T01:12:50;75;66;
76025;PMS5003;64721;51.084;17.242;2022-11-20T01:14:52;79;67;
76025;PMS5003;64721;51.084;17.242;2022-11-20T01:16:58;72;60;
76025;PMS5003;64721;51.084;17.242;2022-11-20T01:18:57;75;62;
76025;PMS5003;64721;51.084;17.242;2022-11-20T01:21:12;67;61;
76025;PMS5003;64721;51.084;17.242;2022-11-20T01:23:10;64;54;
76025;PMS5003;64721;51.084;17.242;2022-11-20T01:25:08;78;63;
76025;PMS5003;64721;51.084;17.242;2022-11-20T01:26:54;82;66;
76025;PMS5003;64721;51.084;17.242;2022-11-20T01:28:53;62;55;
76025;PMS5003;64721;51.084;17.242;2022-11-20T01:32:58;67;59;
76025;PMS5003;64721;51.084;17.242;2022-11-20T01:34:58;61;55;
76025;PMS5003;64721;51.084;17.242;2022-11-20T01:36:46;64;53;
76025;PMS5003;64721;51.084;17.242;2022-11-20T01:38:45;46;41;
76025;PMS5003;64721;51.084;17.242;2022-11-20T01:40:30;46;41;
76025;PMS5003;64721;51.084;17.242;2022-11-20T01:48:12;64;61;
76025;PMS5003;64721;51.084;17.242;2022-11-20T01:52:26;53;49;
76025;PMS5003;64721;51.084;17.242;2022-11-20T01:58:42;66;46;
76025;PMS5003;64721;51.084;17.242;2022-11-20T02:03:16;70;61;
76025;PMS5003;64721;51.084;17.242;2022-11-20T02:05:11;70;61;
76025;PMS5003;64721;51.084;17.242;2022-11-20T02:07:12;76;64;
76025;PMS5003;64721;51.084;17.242;2022-11-20T02:08:58;77;64;
76025;PMS5003;64721;51.084;17.242;2022-11-20T02:11:09;69;57;
76025;PMS5003;64721;51.084;17.242;2022-11-20T02:13:40;69;57;
76025;PMS5003;64721;51.084;17.242;2022-11-20T02:15:39;60;51;
76025;PMS5003;64721;51.084;17.242;2022-11-20T02:17:26;55;48;
76025;PMS5003;64721;51.084;17.242;2022-11-20T02:19:40;52;49;
76025;PMS5003;64721;51.084;17.242;2022-11-20T02:21:58;62;55;
76025;PMS5003;64721;51.084;17.242;2022-11-20T02:24:05;62;59;
76025;PMS5003;64721;51.084;17.242;2022-11-20T02:25:51;61;56;
76025;PMS5003;64721;51.084;17.242;2022-11-20T02:28:29;45;39;
76025;PMS5003;64721;51.084;17.242;2022-11-20T02:30:28;50;43;
76025;PMS5003;64721;51.084;17.242;2022-11-20T02:32:27;46;42;
76025;PMS5003;64721;51.084;17.242;2022-11-20T02:34:30;59;54;
76025;PMS5003;64721;51.084;17.242;2022-11-20T02:36:51;64;51;
76025;PMS5003;64721;51.084;17.242;2022-11-20T02:38:37;60;49;
76025;PMS5003;64721;51.084;17.242;2022-11-20T02:40:35;49;38;
76025;PMS5003;64721;51.084;17.242;2022-11-20T02:42:33;48;42;
76025;PMS5003;64721;51.084;17.242;2022-11-20T02:44:17;45;40;
76025;PMS5003;64721;51.084;17.242;2022-11-20T02:46:28;53;44;
76025;PMS5003;64721;51.084;17.242;2022-11-20T02:48:26;54;50;
76025;PMS5003;64721;51.084;17.242;2022-11-20T02:50:38;52;40;
76025;PMS5003;64721;51.084;17.242;2022-11-20T02:52:36;53;47;
76025;PMS5003;64721;51.084;17.242;2022-11-20T02:54:21;53;48;
76025;PMS5003;64721;51.084;17.242;2022-11-20T02:56:33;52;43;
76025;PMS5003;64721;51.084;17.242;2022-11-20T02:58:17;50;42;
76025;PMS5003;64721;51.084;17.242;2022-11-20T03:00:42;58;52;
76025;PMS5003;64721;51.084;17.242;2022-11-20T03:02:27;58;52;
76025;PMS5003;64721;51.084;17.242;2022-11-20T03:05:19;61;48;
76025;PMS5003;64721;51.084;17.242;2022-11-20T03:07:18;53;42;
76025;PMS5003;64721;51.084;17.242;2022-11-20T03:09:02;53;42;
76025;PMS5003;64721;51.084;17.242;2022-11-20T03:10:47;55;49;
76025;PMS5003;64721;51.084;17.242;2022-11-20T03:12:31;59;53;
76025;PMS5003;64721;51.084;17.242;2022-11-20T03:14:28;59;53;
76025;PMS5003;64721;51.084;17.242;2022-11-20T03:16:25;59;55;
76025;PMS5003;64721;51.084;17.242;2022-11-20T03:18:10;58;55;
76025;PMS5003;64721;51.084;17.242;2022-11-20T03:20:10;59;50;
76025;PMS5003;64721;51.084;17.242;2022-11-20T03:21:54;58;49;
76025;PMS5003;64721;51.084;17.242;2022-11-20T03:23:53;69;58;
76025;PMS5003;64721;51.084;17.242;2022-11-20T03:25:56;64;59;
76025;PMS5003;64721;51.084;17.242;2022-11-20T03:27:54;74;57;
76025;PMS5003;64721;51.084;17.242;2022-11-20T03:30:04;56;52;
76025;PMS5003;64721;51.084;17.242;2022-11-20T03:32:03;52;43;
76025;PMS5003;64721;51.084;17.242;2022-11-20T03:34:01;72;63;
76025;PMS5003;64721;51.084;17.242;2022-11-20T03:35:59;63;61;
76025;PMS5003;64721;51.084;17.242;2022-11-20T03:37:58;74;65;
76025;PMS5003;64721;51.084;17.242;2022-11-20T03:40:11;93;82;
76025;PMS5003;64721;51.084;17.242;2022-11-20T03:42:23;82;66;
76025;PMS5003;64721;51.084;17.242;2022-11-20T03:44:23;63;52;
76025;PMS5003;64721;51.084;17.242;2022-11-20T03:46:22;64;53;
76025;PMS5003;64721;51.084;17.242;2022-11-20T03:48:19;82;73;
76025;PMS5003;64721;51.084;17.242;2022-11-20T03:50:31;73;66;
76025;PMS5003;64721;51.084;17.242;2022-11-20T03:52:15;73;66;
76025;PMS5003;64721;51.084;17.242;2022-11-20T03:54:12;69;58;
76025;PMS5003;64721;51.084;17.242;2022-11-20T03:56:27;67;61;
76025;PMS5003;64721;51.084;17.242;2022-11-20T03:58:25;66;57;
76025;PMS5003;64721;51.084;17.242;2022-11-20T04:00:10;66;57;
76025;PMS5003;64721;51.084;17.242;2022-11-20T04:02:10;86;71;
76025;PMS5003;64721;51.084;17.242;2022-11-20T04:04:08;81;69;
76025;PMS5003;64721;51.084;17.242;2022-11-20T04:06:10;74;63;
76025;PMS5003;64721;51.084;17.242;2022-11-20T04:07:55;74;63;
76025;PMS5003;64721;51.084;17.242;2022-11-20T04:09:52;72;57;
76025;PMS5003;64721;51.084;17.242;2022-11-20T04:11:52;63;54;
76025;PMS5003;64721;51.084;17.242;2022-11-20T04:13:53;67;56;
76025;PMS5003;64721;51.084;17.242;2022-11-20T04:16:06;56;46;
76025;PMS5003;64721;51.084;17.242;2022-11-20T04:18:02;56;46;
76025;PMS5003;64721;51.084;17.242;2022-11-20T04:20:00;51;42;
76025;PMS5003;64721;51.084;17.242;2022-11-20T04:21:45;51;41;
76025;PMS5003;64721;51.084;17.242;2022-11-20T04:23:56;74;64;
76025;PMS5003;64721;51.084;17.242;2022-11-20T04:25:40;72;64;
76025;PMS5003;64721;51.084;17.242;2022-11-20T04:27:24;65;50;
76025;PMS5003;64721;51.084;17.242;2022-11-20T04:29:31;84;72;
76025;PMS5003;64721;51.084;17.242;2022-11-20T04:31:31;72;57;
76025;PMS5003;64721;51.084;17.242;2022-11-20T04:33:29;80;70;
76025;PMS5003;64721;51.084;17.242;2022-11-20T04:35:13;79;67;
76025;PMS5003;64721;51.084;17.242;2022-11-20T04:37:11;97;86;
76025;PMS5003;64721;51.084;17.242;2022-11-20T04:39:11;94;89;
76025;PMS5003;64721;51.084;17.242;2022-11-20T04:41:40;86;76;
76025;PMS5003;64721;51.084;17.242;2022-11-20T04:43:39;113;100;
76025;PMS5003;64721;51.084;17.242;2022-11-20T04:46:28;146;121;
76025;PMS5003;64721;51.084;17.242;2022-11-20T04:48:12;144;121;
76025;PMS5003;64721;51.084;17.242;2022-11-20T04:50:10;70;60;
76025;PMS5003;64721;51.084;17.242;2022-11-20T04:52:09;63;58;
76025;PMS5003;64721;51.084;17.242;2022-11-20T04:53:54;63;58;
76025;PMS5003;64721;51.084;17.242;2022-11-20T04:55:51;83;71;
76025;PMS5003;64721;51.084;17.242;2022-11-20T04:57:35;78;71;
76025;PMS5003;64721;51.084;17.242;2022-11-20T04:59:36;77;63;
76025;PMS5003;64721;51.084;17.242;2022-11-20T05:01:37;80;67;
76025;PMS5003;64721;51.084;17.242;2022-11-20T05:03:35;52;50;
76025;PMS5003;64721;51.084;17.242;2022-11-20T05:05:19;52;50;
76025;PMS5003;64721;51.084;17.242;2022-11-20T05:07:16;75;64;
76025;PMS5003;64721;51.084;17.242;2022-11-20T05:09:13;63;55;
76025;PMS5003;64721;51.084;17.242;2022-11-20T05:11:20;70;64;
76025;PMS5003;64721;51.084;17.242;2022-11-20T05:13:19;68;61;
76025;PMS5003;64721;51.084;17.242;2022-11-20T05:15:17;101;88;
76025;PMS5003;64721;51.084;17.242;2022-11-20T05:17:17;90;75;
76025;PMS5003;64721;51.084;17.242;2022-11-20T05:19:15;89;74;
76025;PMS5003;64721;51.084;17.242;2022-11-20T05:21:11;89;73;
76025;PMS5003;64721;51.084;17.242;2022-11-20T05:23:08;66;55;
76025;PMS5003;64721;51.084;17.242;2022-11-20T05:25:20;56;50;
76025;PMS5003;64721;51.084;17.242;2022-11-20T05:27:18;77;65;
76025;PMS5003;64721;51.084;17.242;2022-11-20T05:29:25;58;53;
76025;PMS5003;64721;51.084;17.242;2022-11-20T05:31:24;63;50;
76025;PMS5003;64721;51.084;17.242;2022-11-20T05:33:22;64;54;
76025;PMS5003;64721;51.084;17.242;2022-11-20T05:35:20;54;50;
76025;PMS5003;64721;51.084;17.242;2022-11-20T05:37:31;68;53;
76025;PMS5003;64721;51.084;17.242;2022-11-20T05:39:29;82;73;
76025;PMS5003;64721;51.084;17.242;2022-11-20T05:41:27;55;43;
76025;PMS5003;64721;51.084;17.242;2022-11-20T05:43:12;55;43;
76025;PMS5003;64721;51.084;17.242;2022-11-20T05:45:10;52;44;
76025;PMS5003;64721;51.084;17.242;2022-11-20T05:47:06;48;41;
76025;PMS5003;64721;51.084;17.242;2022-11-20T05:49:32;66;56;
76025;PMS5003;64721;51.084;17.242;2022-11-20T05:51:17;65;55;
76025;PMS5003;64721;51.084;17.242;2022-11-20T05:53:28;64;50;
76025;PMS5003;64721;51.084;17.242;2022-11-20T05:55:26;71;66;
76025;PMS5003;64721;51.084;17.242;2022-11-20T05:57:38;62;52;
76025;PMS5003;64721;51.084;17.242;2022-11-20T05:59:37;72;62;
76025;PMS5003;64721;51.084;17.242;2022-11-20T06:01:27;72;61;
76025;PMS5003;64721;51.084;17.242;2022-11-20T06:03:26;51;46;
76025;PMS5003;64721;51.084;17.242;2022-11-20T06:05:16;54;48;
76025;PMS5003;64721;51.084;17.242;2022-11-20T06:09:06;49;44;
76025;PMS5003;64721;51.084;17.242;2022-11-20T06:11:19;70;59;
76025;PMS5003;64721;51.084;17.242;2022-11-20T06:13:16;59;52;
76025;PMS5003;64721;51.084;17.242;2022-11-20T06:15:27;50;45;
76025;PMS5003;64721;51.084;17.242;2022-11-20T06:17:25;61;56;
76025;PMS5003;64721;51.084;17.242;2022-11-20T06:19:10;58;53;
76025;PMS5003;64721;51.084;17.242;2022-11-20T06:22:24;55;48;
76025;PMS5003;64721;51.084;17.242;2022-11-20T06:24:09;55;48;
76025;PMS5003;64721;51.084;17.242;2022-11-20T06:26:09;75;65;
76025;PMS5003;64721;51.084;17.242;2022-11-20T06:28:08;73;60;
76025;PMS5003;64721;51.084;17.242;2022-11-20T06:30:06;80;66;
76025;PMS5003;64721;51.084;17.242;2022-11-20T06:32:05;105;82;
76025;PMS5003;64721;51.084;17.242;2022-11-20T06:33:49;100;79;
76025;PMS5003;64721;51.084;17.242;2022-11-20T06:35:33;111;87;
76025;PMS5003;64721;51.084;17.242;2022-11-20T06:38:00;92;73;
76025;PMS5003;64721;51.084;17.242;2022-11-20T06:39:58;84;68;
76025;PMS5003;64721;51.084;17.242;2022-11-20T06:42:25;74;64;
76025;PMS5003;64721;51.084;17.242;2022-11-20T06:44:09;74;64;
76025;PMS5003;64721;51.084;17.242;2022-11-20T06:45:56;77;59;
76025;PMS5003;64721;51.084;17.242;2022-11-20T06:49:34;84;74;
76025;PMS5003;64721;51.084;17.242;2022-11-20T06:51:33;98;82;
76025;PMS5003;64721;51.084;17.242;2022-11-20T06:53:31;75;65;
76025;PMS5003;64721;51.084;17.242;2022-11-20T06:55:46;70;60;
76025;PMS5003;64721;51.084;17.242;2022-11-20T06:57:43;74;61;
76025;PMS5003;64721;51.084;17.242;2022-11-20T06:59:40;72;55;
76025;PMS5003;64721;51.084;17.242;2022-11-20T07:01:30;70;54;
76025;PMS5003;64721;51.084;17.242;2022-11-20T07:03:28;56;50;
76025;PMS5003;64721;51.084;17.242;2022-11-20T07:05:26;75;56;
76025;PMS5003;64721;51.084;17.242;2022-11-20T07:07:37;79;66;
76025;PMS5003;64721;51.084;17.242;2022-11-20T07:09:21;79;66;
76025;PMS5003;64721;51.084;17.242;2022-11-20T07:11:20;73;61;
76025;PMS5003;64721;51.084;17.242;2022-11-20T07:13:04;72;61;
76025;PMS5003;64721;51.084;17.242;2022-11-20T07:15:04;65;55;
76025;PMS5003;64721;51.084;17.242;2022-11-20T07:17:12;65;55;
76025;PMS5003;64721;51.084;17.242;2022-11-20T07:19:11;66;53;
76025;PMS5003;64721;51.084;17.242;2022-11-20T07:21:23;76;68;
76025;PMS5003;64721;51.084;17.242;2022-11-20T07:23:35;74;68;
76025;PMS5003;64721;51.084;17.242;2022-11-20T07:25:24;84;64;
76025;PMS5003;64721;51.084;17.242;2022-11-20T07:27:22;89;72;
76025;PMS5003;64721;51.084;17.242;2022-11-20T07:29:20;91;73;
76025;PMS5003;64721;51.084;17.242;2022-11-20T07:34:55;69;63;
76025;PMS5003;64721;51.084;17.242;2022-11-20T07:37:20;61;56;
76025;PMS5003;64721;51.084;17.242;2022-11-20T07:39:32;53;45;
76025;PMS5003;64721;51.084;17.242;2022-11-20T07:41:43;41;38;
76025;PMS5003;64721;51.084;17.242;2022-11-20T07:43:32;41;38;
76025;PMS5003;64721;51.084;17.242;2022-11-20T07:45:16;49;39;
76025;PMS5003;64721;51.084;17.242;2022-11-20T07:47:29;50;43;
76025;PMS5003;64721;51.084;17.242;2022-11-20T07:51:25;63;54;
76025;PMS5003;64721;51.084;17.242;2022-11-20T07:53:09;60;54;
76025;PMS5003;64721;51.084;17.242;2022-11-20T07:55:08;46;39;
76025;PMS5003;64721;51.084;17.242;2022-11-20T07:57:08;59;52;
76025;PMS5003;64721;51.084;17.242;2022-11-20T07:59:05;51;47;
76025;PMS5003;64721;51.084;17.242;2022-11-20T08:01:07;55;51;
76025;PMS5003;64721;51.084;17.242;2022-11-20T08:03:21;56;48;
76025;PMS5003;64721;51.084;17.242;2022-11-20T08:05:06;60;50;
76025;PMS5003;64721;51.084;17.242;2022-11-20T08:07:03;60;56;
76025;PMS5003;64721;51.084;17.242;2022-11-20T08:23:27;47;39;
76025;PMS5003;64721;51.084;17.242;2022-11-20T08:25:27;58;47;
76025;PMS5003;64721;51.084;17.242;2022-11-20T08:27:24;59;53;
76025;PMS5003;64721;51.084;17.242;2022-11-20T08:29:22;65;53;
76025;PMS5003;64721;51.084;17.242;2022-11-20T08:31:20;40;38;
76025;PMS5003;64721;51.084;17.242;2022-11-20T08:33:46;57;47;
76025;PMS5003;64721;51.084;17.242;2022-11-20T08:35:31;57;47;
76025;PMS5003;64721;51.084;17.242;2022-11-20T08:37:30;42;40;
76025;PMS5003;64721;51.084;17.242;2022-11-20T08:39:41;62;56;
76025;PMS5003;64721;51.084;17.242;2022-11-20T08:41:40;61;56;
76025;PMS5003;64721;51.084;17.242;2022-11-20T08:44:14;49;47;
76025;PMS5003;64721;51.084;17.242;2022-11-20T08:45:58;49;47;
76025;PMS5003;64721;51.084;17.242;2022-11-20T08:50:17;64;56;
76025;PMS5003;64721;51.084;17.242;2022-11-20T08:54:33;64;57;
76025;PMS5003;64721;51.084;17.242;2022-11-20T08:56:17;64;56;
76025;PMS5003;64721;51.084;17.242;2022-11-20T08:58:16;65;52;
76025;PMS5003;64721;51.084;17.242;2022-11-20T09:00:01;67;51;
76025;PMS5003;64721;51.084;17.242;2022-11-20T09:01:47;59;49;
76025;PMS5003;64721;51.084;17.242;2022-11-20T09:04:14;151;129;
76025;PMS5003;64721;51.084;17.242;2022-11-20T09:06:28;124;105;
76025;PMS5003;64721;51.084;17.242;2022-11-20T09:08:44;71;63;
76025;PMS5003;64721;51.084;17.242;2022-11-20T09:10:29;71;63;
76025;PMS5003;64721;51.084;17.242;2022-11-20T09:12:29;57;49;
76025;PMS5003;64721;51.084;17.242;2022-11-20T09:14:28;80;75;
76025;PMS5003;64721;51.084;17.242;2022-11-20T09:16:12;80;75;
76025;PMS5003;64721;51.084;17.242;2022-11-20T09:18:09;57;54;
76025;PMS5003;64721;51.084;17.242;2022-11-20T09:20:10;84;77;
76025;PMS5003;64721;51.084;17.242;2022-11-20T09:22:10;62;56;
76025;PMS5003;64721;51.084;17.242;2022-11-20T09:25:32;53;51;
76025;PMS5003;64721;51.084;17.242;2022-11-20T09:29:27;52;46;
76025;PMS5003;64721;51.084;17.242;2022-11-20T09:31:23;52;46;
76025;PMS5003;64721;51.084;17.242;2022-11-20T09:33:34;47;43;
76025;PMS5003;64721;51.084;17.242;2022-11-20T09:35:33;55;48;
76025;PMS5003;64721;51.084;17.242;2022-11-20T09:37:18;56;50;
76025;PMS5003;64721;51.084;17.242;2022-11-20T09:40:57;66;63;
76025;PMS5003;64721;51.084;17.242;2022-11-20T09:42:54;65;63;
76025;PMS5003;64721;51.084;17.242;2022-11-20T09:46:18;48;46;
76025;PMS5003;64721;51.084;17.242;2022-11-20T09:49:27;142;131;
76025;PMS5003;64721;51.084;17.242;2022-11-20T09:51:43;75;67;
76025;PMS5003;64721;51.084;17.242;2022-11-20T09:53:44;75;67;
76025;PMS5003;64721;51.084;17.242;2022-11-20T09:55:31;63;61;
76025;PMS5003;64721;51.084;17.242;2022-11-20T09:57:19;58;54;
76025;PMS5003;64721;51.084;17.242;2022-11-20T09:59:13;52;51;
76025;PMS5003;64721;51.084;17.242;2022-11-20T10:01:15;68;61;
76025;PMS5003;64721;51.084;17.242;2022-11-20T10:03:17;52;45;
76025;PMS5003;64721;51.084;17.242;2022-11-20T10:09:27;45;42;
76025;PMS5003;64721;51.084;17.242;2022-11-20T10:11:20;42;40;
76025;PMS5003;64721;51.084;17.242;2022-11-20T10:15:27;54;48;
76025;PMS5003;64721;51.084;17.242;2022-11-20T10:17:58;38;32;
76025;PMS5003;64721;51.084;17.242;2022-11-20T10:20:20;36;35;
76025;PMS5003;64721;51.084;17.242;2022-11-20T10:23:39;39;36;
76025;PMS5003;64721;51.084;17.242;2022-11-20T10:25:50;38;36;
76025;PMS5003;64721;51.084;17.242;2022-11-20T10:27:52;37;36;
76025;PMS5003;64721;51.084;17.242;2022-11-20T10:30:24;38;35;
76025;PMS5003;64721;51.084;17.242;2022-11-20T10:32:26;48;43;
76025;PMS5003;64721;51.084;17.242;2022-11-20T10:34:22;48;43;
76025;PMS5003;64721;51.084;17.242;2022-11-20T10:38:14;30;28;
76025;PMS5003;64721;51.084;17.242;2022-11-20T10:40:23;35;31;
76025;PMS5003;64721;51.084;17.242;2022-11-20T10:44:14;24;23;
76025;PMS5003;64721;51.084;17.242;2022-11-20T10:48:44;37;34;
76025;PMS5003;64721;51.084;17.242;2022-11-20T10:51:15;27;26;
76025;PMS5003;64721;51.084;17.242;2022-11-20T10:54:11;34;33;
76025;PMS5003;64721;51.084;17.242;2022-11-20T10:56:22;44;40;
76025;PMS5003;64721;51.084;17.242;2022-11-20T10:58:25;42;36;
76025;PMS5003;64721;51.084;17.242;2022-11-20T11:00:40;32;32;
76025;PMS5003;64721;51.084;17.242;2022-11-20T11:03:07;35;33;
76025;PMS5003;64721;51.084;17.242;2022-11-20T11:05:44;30;28;
76025;PMS5003;64721;51.084;17.242;2022-11-20T11:07:42;29;25;
76025;PMS5003;64721;51.084;17.242;2022-11-20T11:10:24;19;17;
76025;PMS5003;64721;51.084;17.242;2022-11-20T11:13:26;25;24;
76025;PMS5003;64721;51.084;17.242;2022-11-20T11:15:24;26;24;
76025;PMS5003;64721;51.084;17.242;2022-11-20T11:17:32;22;22;
76025;PMS5003;64721;51.084;17.242;2022-11-20T11:19:31;22;22;
76025;PMS5003;64721;51.084;17.242;2022-11-20T11:21:32;27;23;
76025;PMS5003;64721;51.084;17.242;2022-11-20T11:31:03;23;20;
76025;PMS5003;64721;51.084;17.242;2022-11-20T11:33:08;23;20;
76025;PMS5003;64721;51.084;17.242;2022-11-20T11:35:04;31;28;
76025;PMS5003;64721;51.084;17.242;2022-11-20T11:37:15;21;17;
76025;PMS5003;64721;51.084;17.242;2022-11-20T11:40:13;28;25;
76025;PMS5003;64721;51.084;17.242;2022-11-20T11:42:26;28;25;
76025;PMS5003;64721;51.084;17.242;2022-11-20T11:44:53;63;57;
76025;PMS5003;64721;51.084;17.242;2022-11-20T11:47:36;37;35;
76025;PMS5003;64721;51.084;17.242;2022-11-20T11:49:31;36;34;
76025;PMS5003;64721;51.084;17.242;2022-11-20T11:51:32;27;24;
76025;PMS5003;64721;51.084;17.242;2022-11-20T11:57:37;26;24;
76025;PMS5003;64721;51.084;17.242;2022-11-20T11:59:43;25;23;
76025;PMS5003;64721;51.084;17.242;2022-11-20T12:04:19;20;19;
76025;PMS5003;64721;51.084;17.242;2022-11-20T12:06:18;19;18;
76025;PMS5003;64721;51.084;17.242;2022-11-20T12:08:36;27;22;
76025;PMS5003;64721;51.084;17.242;2022-11-20T12:11:17;24;24;
76025;PMS5003;64721;51.084;17.242;2022-11-20T12:13:20;24;24;
76025;PMS5003;64721;51.084;17.242;2022-11-20T12:15:48;20;18;
76025;PMS5003;64721;51.084;17.242;2022-11-20T12:17:51;19;18;
76025;PMS5003;64721;51.084;17.242;2022-11-20T12:19:47;19;18;
76025;PMS5003;64721;51.084;17.242;2022-11-20T12:22:05;29;28;
76025;PMS5003;64721;51.084;17.242;2022-11-20T12:24:02;28;27;
76025;PMS5003;64721;51.084;17.242;2022-11-20T12:26:31;21;19;
76025;PMS5003;64721;51.084;17.242;2022-11-20T12:33:37;19;18;
76025;PMS5003;64721;51.084;17.242;2022-11-20T12:36:04;18;17;
76025;PMS5003;64721;51.084;17.242;2022-11-20T12:37:58;18;17;
76025;PMS5003;64721;51.084;17.242;2022-11-20T12:40:20;25;21;
76025;PMS5003;64721;51.084;17.242;2022-11-20T12:43:18;25;23;
76025;PMS5003;64721;51.084;17.242;2022-11-20T12:47:34;19;17;
76025;PMS5003;64721;51.084;17.242;2022-11-20T12:49:59;16;15;
76025;PMS5003;64721;51.084;17.242;2022-11-20T12:52:12;16;15;
76025;PMS5003;64721;51.084;17.242;2022-11-20T12:54:18;24;21;
76025;PMS5003;64721;51.084;17.242;2022-11-20T13:00:16;15;14;
76025;PMS5003;64721;51.084;17.242;2022-11-20T13:02:21;15;13;
76025;PMS5003;64721;51.084;17.242;2022-11-20T13:04:31;19;17;
76025;PMS5003;64721;51.084;17.242;2022-11-20T13:06:29;19;17;
76025;PMS5003;64721;51.084;17.242;2022-11-20T13:08:47;16;16;
76025;PMS5003;64721;51.084;17.242;2022-11-20T13:10:44;17;17;
76025;PMS5003;64721;51.084;17.242;2022-11-20T13:12:49;19;15;
76025;PMS5003;64721;51.084;17.242;2022-11-20T13:14:47;22;16;
76025;PMS5003;64721;51.084;17.242;2022-11-20T13:16:36;19;17;
76025;PMS5003;64721;51.084;17.242;2022-11-20T13:18:36;22;21;
76025;PMS5003;64721;51.084;17.242;2022-11-20T13:20:24;22;21;
76025;PMS5003;64721;51.084;17.242;2022-11-20T13:22:23;18;16;
76025;PMS5003;64721;51.084;17.242;2022-11-20T13:25:09;13;13;
76025;PMS5003;64721;51.084;17.242;2022-11-20T13:27:23;15;15;
76025;PMS5003;64721;51.084;17.242;2022-11-20T13:30:11;20;19;
76025;PMS5003;64721;51.084;17.242;2022-11-20T13:32:12;20;19;
76025;PMS5003;64721;51.084;17.242;2022-11-20T13:34:29;13;12;
76025;PMS5003;64721;51.084;17.242;2022-11-20T13:36:21;13;12;
76025;PMS5003;64721;51.084;17.242;2022-11-20T13:38:46;16;16;
76025;PMS5003;64721;51.084;17.242;2022-11-20T13:40:55;15;14;
76025;PMS5003;64721;51.084;17.242;2022-11-20T13:43:07;15;14;
76025;PMS5003;64721;51.084;17.242;2022-11-20T13:45:22;23;20;
76025;PMS5003;64721;51.084;17.242;2022-11-20T13:47:25;20;19;
76025;PMS5003;64721;51.084;17.242;2022-11-20T13:49:25;21;19;
76025;PMS5003;64721;51.084;17.242;2022-11-20T13:51:34;24;19;
76025;PMS5003;64721;51.084;17.242;2022-11-20T13:53:48;39;36;
76025;PMS5003;64721;51.084;17.242;2022-11-20T13:55:51;40;38;
76025;PMS5003;64721;51.084;17.242;2022-11-20T13:58:12;26;26;
76025;PMS5003;64721;51.084;17.242;2022-11-20T14:00:24;29;28;
76025;PMS5003;64721;51.084;17.242;2022-11-20T14:02:11;29;28;
76025;PMS5003;64721;51.084;17.242;2022-11-20T14:04:05;21;21;
76025;PMS5003;64721;51.084;17.242;2022-11-20T14:06:05;30;27;
76025;PMS5003;64721;51.084;17.242;2022-11-20T14:08:06;32;28;
76025;PMS5003;64721;51.084;17.242;2022-11-20T14:10:27;34;32;
76025;PMS5003;64721;51.084;17.242;2022-11-20T14:13:23;24;23;
76025;PMS5003;64721;51.084;17.242;2022-11-20T14:15:31;21;20;
76025;PMS5003;64721;51.084;17.242;2022-11-20T14:17:54;28;26;
76025;PMS5003;64721;51.084;17.242;2022-11-20T14:20:12;20;20;
76025;PMS5003;64721;51.084;17.242;2022-11-20T14:22:15;20;20;
76025;PMS5003;64721;51.084;17.242;2022-11-20T14:26:02;32;31;
76025;PMS5003;64721;51.084;17.242;2022-11-20T14:28:01;19;19;
76025;PMS5003;64721;51.084;17.242;2022-11-20T14:30:11;23;23;
76025;PMS5003;64721;51.084;17.242;2022-11-20T14:31:59;23;23;
76025;PMS5003;64721;51.084;17.242;2022-11-20T14:34:31;21;19;
76025;PMS5003;64721;51.084;17.242;2022-11-20T14:36:22;21;19;
76025;PMS5003;64721;51.084;17.242;2022-11-20T14:38:21;20;19;
76025;PMS5003;64721;51.084;17.242;2022-11-20T14:40:21;20;18;
76025;PMS5003;64721;51.084;17.242;2022-11-20T14:42:58;21;19;
76025;PMS5003;64721;51.084;17.242;2022-11-20T14:45:12;35;30;
76025;PMS5003;64721;51.084;17.242;2022-11-20T14:46:56;30;28;
76025;PMS5003;64721;51.084;17.242;2022-11-20T14:49:09;37;36;
76025;PMS5003;64721;51.084;17.242;2022-11-20T14:56:31;29;26;
76025;PMS5003;64721;51.084;17.242;2022-11-20T15:00:28;85;78;
76025;PMS5003;64721;51.084;17.242;2022-11-20T15:02:38;31;31;
76025;PMS5003;64721;51.084;17.242;2022-11-20T15:04:56;36;33;
76025;PMS5003;64721;51.084;17.242;2022-11-20T15:06:48;36;33;
76025;PMS5003;64721;51.084;17.242;2022-11-20T15:08:55;29;29;
76025;PMS5003;64721;51.084;17.242;2022-11-20T15:10:57;29;29;